createdAt,value
2018-11-23T00:01:11.066Z,702.47
2018-11-23T00:03:40.621Z,658.65
2018-11-23T00:06:11.102Z,639.20
2018-11-23T00:08:41.729Z,607.85
2018-11-23T00:11:11.222Z,670.83
2018-11-23T00:13:40.822Z,656.27
2018-11-23T00:16:10.306Z,618.25
2018-11-23T00:18:41.853Z,653.65
2018-11-23T00:21:13.393Z,704.80
2018-11-23T00:23:42.865Z,743.33
2018-11-23T00:26:14.350Z,649.27
2018-11-23T00:28:43.837Z,686.47
2018-11-23T00:31:15.394Z,631.77
2018-11-23T00:33:44.858Z,661.23
2018-11-23T00:36:14.452Z,735.83
2018-11-23T00:38:43.974Z,646.30
2018-11-23T00:41:13.380Z,624.92
2018-11-23T00:43:42.903Z,610.43
2018-11-23T00:46:12.402Z,612.30
2018-11-23T00:48:41.923Z,589.75
2018-11-23T00:51:11.430Z,684.75
2018-11-23T00:53:40.899Z,613.30
2018-11-23T00:56:11.449Z,613.47
2018-11-23T00:58:40.850Z,652.45
2018-11-23T01:01:10.313Z,615.25
2018-11-23T01:03:39.769Z,693.15
2018-11-23T01:06:10.314Z,672.08
2018-11-23T01:08:39.857Z,614.03
2018-11-23T01:11:10.396Z,645.88
2018-11-23T01:13:40.900Z,619.23
2018-11-23T01:16:10.309Z,606.42
2018-11-23T01:18:39.751Z,622.20
2018-11-23T01:21:09.281Z,654.23
2018-11-23T01:23:38.859Z,636.62
2018-11-23T01:26:08.420Z,624.48
2018-11-23T01:28:37.976Z,583.87
2018-11-23T01:31:08.478Z,595.80
2018-11-23T01:33:37.967Z,610.75
2018-11-23T01:49:10.047Z,640.88
2018-11-23T01:51:39.452Z,663.77
2018-11-23T01:54:09.598Z,639.73
2018-11-23T01:56:39.057Z,639.10
2018-11-23T01:59:10.516Z,616.93
2018-11-23T02:01:41.025Z,761.92
2018-11-23T02:04:12.325Z,607.40
2018-11-23T02:06:42.803Z,619.17
2018-11-23T02:09:12.319Z,595.95
2018-11-23T02:11:41.869Z,610.27
2018-11-23T02:14:13.408Z,670.30
2018-11-23T02:16:42.946Z,650.90
2018-11-23T02:19:12.442Z,668.75
2018-11-23T02:21:43.013Z,597.00
2018-11-23T02:24:12.835Z,601.52
2018-11-23T02:26:43.382Z,637.95
2018-11-23T02:29:12.935Z,606.63
2018-11-23T02:31:44.826Z,642.72
2018-11-23T02:34:14.360Z,606.95
2018-11-23T02:36:43.870Z,601.33
2018-11-23T02:39:13.346Z,630.10
2018-11-23T02:41:42.904Z,640.70
2018-11-23T02:44:12.485Z,688.63
2018-11-23T02:46:43.015Z,767.03
2018-11-23T03:02:15.131Z,648.08
2018-11-23T03:04:46.734Z,637.95
2018-11-23T03:07:16.167Z,650.70
2018-11-23T03:09:46.732Z,671.08
2018-11-23T03:12:16.326Z,624.73
2018-11-23T03:14:47.796Z,703.80
2018-11-23T03:17:18.298Z,663.80
2018-11-23T03:19:48.691Z,676.13
2018-11-23T03:22:20.255Z,680.92
2018-11-23T03:24:49.811Z,664.87
2018-11-23T03:27:20.295Z,902.80
2018-11-23T03:29:51.850Z,735.55
2018-11-23T03:32:23.968Z,797.03
2018-11-23T03:34:53.575Z,751.70
2018-11-23T03:37:25.093Z,753.10
2018-11-23T03:39:54.957Z,714.95
2018-11-23T03:42:24.471Z,837.78
2018-11-23T03:44:53.941Z,745.20
2018-11-23T03:47:23.507Z,886.52
2018-11-23T03:49:52.948Z,776.73
2018-11-23T03:52:22.416Z,838.52
2018-11-23T03:54:51.919Z,814.17
2018-11-23T03:57:22.065Z,929.78
2018-11-23T03:59:53.669Z,797.52
2018-11-23T04:02:23.204Z,701.00
2018-11-23T04:04:52.699Z,697.42
2018-11-23T04:07:22.998Z,740.50
2018-11-23T04:09:52.660Z,733.65
2018-11-23T04:12:22.308Z,699.42
2018-11-23T04:27:57.212Z,722.70
2018-11-23T04:30:26.822Z,640.05
2018-11-23T04:32:56.448Z,752.42
2018-11-23T04:35:26.985Z,740.23
2018-11-23T04:37:56.455Z,616.55
2018-11-23T04:40:25.987Z,747.30
2018-11-23T04:56:01.014Z,777.67
2018-11-23T04:58:31.605Z,784.08
2018-11-23T05:01:03.137Z,682.73
2018-11-23T05:03:33.675Z,677.15
2018-11-23T05:06:03.101Z,894.82
2018-11-23T05:08:32.783Z,1028.67
2018-11-23T05:11:02.252Z,820.42
2018-11-23T05:13:31.784Z,812.78
2018-11-23T05:16:02.422Z,920.25
2018-11-23T05:18:33.154Z,657.80
2018-11-23T05:21:03.818Z,973.78
2018-11-23T05:23:33.271Z,712.33
2018-11-23T05:26:02.723Z,831.17
2018-11-23T05:28:33.328Z,662.45
2018-11-23T05:31:03.956Z,862.40
2018-11-23T05:33:33.517Z,800.53
2018-11-23T05:36:04.120Z,811.70
2018-11-23T05:38:35.790Z,742.33
2018-11-23T05:41:06.301Z,689.97
2018-11-23T05:43:36.027Z,784.63
2018-11-23T05:46:05.883Z,639.17
2018-11-23T05:48:35.571Z,756.07
2018-11-23T06:04:10.269Z,629.17
2018-11-23T06:06:42.500Z,667.05
2018-11-23T06:09:10.277Z,793.95
2018-11-23T06:11:39.856Z,763.77
2018-11-23T06:14:11.386Z,763.63
2018-11-23T06:16:42.866Z,637.45
2018-11-23T06:19:13.403Z,597.27
2018-11-23T06:21:42.920Z,660.48
2018-11-23T06:24:12.416Z,699.45
2018-11-23T06:26:41.869Z,701.77
2018-11-23T06:29:11.435Z,719.05
2018-11-23T06:31:41.059Z,815.20
2018-11-23T06:34:11.266Z,718.60
2018-11-23T06:36:40.709Z,762.40
2018-11-23T06:39:10.350Z,684.30
2018-11-23T06:41:39.872Z,696.53
2018-11-23T06:44:09.347Z,762.98
2018-11-23T06:46:38.935Z,904.12
2018-11-23T06:49:08.587Z,659.87
2018-11-23T06:51:38.131Z,652.40
2018-11-23T06:54:08.553Z,705.48
2018-11-23T06:56:38.225Z,689.73
2018-11-23T06:59:07.804Z,939.17
2018-11-23T07:01:37.384Z,689.58
2018-11-23T07:17:10.035Z,691.60
2018-11-23T07:19:39.573Z,635.05
2018-11-23T07:22:10.118Z,677.75
2018-11-23T07:24:39.685Z,793.52
2018-11-23T07:27:09.258Z,675.10
2018-11-23T07:29:40.041Z,990.15
2018-11-23T07:32:09.570Z,1195.10
2018-11-23T07:34:39.196Z,1078.95
2018-11-23T07:50:13.011Z,1266.10
2018-11-23T07:52:42.675Z,870.65
2018-11-23T07:55:13.459Z,857.23
2018-11-23T07:57:42.943Z,857.83
2018-11-23T08:00:15.691Z,904.55
2018-11-23T08:02:47.785Z,838.67
2018-11-23T08:05:18.214Z,857.30
2018-11-23T08:07:49.794Z,707.65
2018-11-23T08:23:21.662Z,940.12
2018-11-23T08:25:51.686Z,765.10
2018-11-23T08:28:21.290Z,689.15
2018-11-23T08:30:54.084Z,876.20
2018-11-23T08:33:23.617Z,1105.30
2018-11-23T08:35:55.423Z,1128.75
2018-11-23T08:38:24.965Z,1078.40
2018-11-23T08:40:54.475Z,941.87
2018-11-23T08:43:23.953Z,876.40
2018-11-23T08:45:53.419Z,1049.58
2018-11-23T09:01:26.057Z,1218.60
2018-11-23T09:17:02.347Z,1350.50
2018-11-23T09:19:31.882Z,1202.35
2018-11-23T09:22:01.429Z,974.55
2018-11-23T09:24:32.132Z,928.30
2018-11-23T09:27:01.606Z,1217.05
2018-11-23T09:29:32.632Z,1024.80
2018-11-23T09:32:02.240Z,985.67
2018-11-23T09:34:31.827Z,867.77
2018-11-23T09:37:03.563Z,892.37
2018-11-23T09:39:33.413Z,848.60
2018-11-23T09:42:04.011Z,1121.78
2018-11-23T09:44:33.609Z,1225.35
2018-11-23T09:47:09.809Z,1399.88
2018-11-23T09:49:36.617Z,1302.48
2018-11-23T09:52:06.486Z,1191.48
2018-11-23T09:54:36.055Z,1371.90
2018-11-23T09:57:07.287Z,1316.03
2018-11-23T09:59:36.969Z,1238.97
2018-11-23T10:02:06.620Z,1032.58
2018-11-23T10:04:36.120Z,1076.65
2018-11-23T10:07:07.637Z,1230.65
2018-11-23T10:09:37.172Z,1150.25
2018-11-23T10:12:09.269Z,1290.38
2018-11-23T10:14:39.507Z,1410.15
2018-11-23T10:17:09.011Z,1125.33
2018-11-23T10:19:38.558Z,1311.43
2018-11-23T10:22:08.177Z,1180.40
2018-11-23T10:24:37.809Z,1375.35
2018-11-23T10:27:07.352Z,1039.17
2018-11-23T10:29:37.841Z,1194.65
2018-11-23T10:32:08.367Z,838.65
2018-11-23T10:34:37.874Z,906.20
2018-11-23T10:37:07.385Z,954.80
2018-11-23T10:39:36.923Z,1025.55
2018-11-23T10:42:06.464Z,1136.45
2018-11-23T10:44:36.024Z,998.38
2018-11-23T10:47:06.037Z,891.20
2018-11-23T10:49:36.510Z,896.80
2018-11-23T10:52:06.245Z,992.00
2018-11-23T10:54:35.841Z,1051.78
2018-11-23T10:57:08.777Z,979.25
2018-11-23T10:59:39.847Z,1022.95
2018-11-23T11:02:14.990Z,909.83
2018-11-23T11:04:50.708Z,1018.08
2018-11-23T11:07:20.250Z,852.37
2018-11-23T11:09:51.800Z,984.65
2018-11-23T11:12:21.366Z,904.27
2018-11-23T11:14:50.844Z,803.67
2018-11-23T11:17:20.378Z,798.45
2018-11-23T11:19:49.909Z,777.05
2018-11-23T11:35:22.883Z,866.42
2018-11-23T11:37:52.379Z,871.53
2018-11-23T11:40:22.019Z,748.13
2018-11-23T11:42:51.549Z,815.80
2018-11-23T11:45:21.044Z,742.97
2018-11-23T11:47:50.642Z,763.70
2018-11-23T11:50:20.224Z,736.40
2018-11-23T11:52:49.852Z,723.93
2018-11-23T11:55:20.412Z,738.30
2018-11-23T11:57:50.925Z,730.75
2018-11-23T12:00:23.583Z,734.52
2018-11-23T12:02:54.625Z,737.38
2018-11-23T12:05:24.174Z,728.73
2018-11-23T12:07:53.706Z,738.60
2018-11-23T12:10:24.845Z,733.53
2018-11-23T12:12:54.370Z,732.38
2018-11-23T12:15:24.884Z,727.30
2018-11-23T12:17:54.404Z,723.97
2018-11-23T12:33:28.160Z,726.82
2018-11-23T12:35:58.863Z,747.15
2018-11-23T12:38:28.357Z,725.65
2018-11-23T12:40:59.925Z,715.70
2018-11-23T12:43:29.803Z,724.48
2018-11-23T12:45:59.344Z,727.73
2018-11-23T12:48:28.936Z,735.05
2018-11-23T12:50:59.714Z,716.30
2018-11-23T12:53:30.485Z,725.05
2018-11-23T12:56:00.005Z,716.13
2018-11-23T12:58:29.517Z,706.33
2018-11-23T13:01:00.038Z,710.67
2018-11-23T13:03:32.017Z,707.62
2018-11-23T13:06:03.522Z,706.63
2018-11-23T13:08:35.168Z,714.75
2018-11-23T13:11:04.723Z,705.07
2018-11-23T13:13:34.271Z,716.67
2018-11-23T13:16:05.318Z,711.42
2018-11-23T13:18:34.887Z,714.78
2018-11-23T13:21:04.613Z,721.22
2018-11-23T13:23:38.545Z,728.38
2018-11-23T13:26:09.095Z,722.00
2018-11-23T13:28:39.756Z,711.80
2018-11-23T13:31:09.227Z,720.80
2018-11-23T13:33:39.784Z,717.05
2018-11-23T13:36:09.811Z,708.35
2018-11-23T13:38:40.373Z,711.88
2018-11-23T13:41:09.806Z,704.87
2018-11-23T13:43:39.328Z,713.52
2018-11-23T13:46:08.793Z,710.30
2018-11-23T13:48:38.316Z,716.08
2018-11-23T13:51:07.802Z,711.40
2018-11-23T13:53:37.362Z,702.92
2018-11-23T13:56:08.355Z,706.45
2018-11-23T13:58:37.909Z,707.27
2018-11-23T14:01:07.492Z,726.37
2018-11-23T14:03:36.966Z,710.13
2018-11-23T14:06:07.452Z,703.60
2018-11-23T14:08:37.128Z,707.95
2018-11-23T14:11:06.596Z,729.30
2018-11-23T14:13:36.046Z,708.33
2018-11-23T14:16:07.045Z,711.02
2018-11-23T14:18:36.541Z,706.75
2018-11-23T14:21:06.184Z,710.23
2018-11-23T14:23:35.697Z,700.67
2018-11-23T14:26:05.461Z,706.20
2018-11-23T14:28:35.388Z,698.85
2018-11-23T14:31:05.022Z,699.48
2018-11-23T14:33:35.277Z,706.83
2018-11-23T14:36:06.287Z,701.80
2018-11-23T14:38:35.792Z,707.33
2018-11-23T14:41:05.457Z,693.27
2018-11-23T14:43:35.515Z,690.47
2018-11-23T14:46:05.055Z,690.35
2018-11-23T14:48:35.338Z,690.23
2018-11-23T15:04:08.199Z,692.45
2018-11-23T15:06:37.782Z,701.93
2018-11-23T15:09:09.567Z,702.45
2018-11-23T15:11:39.593Z,692.42
2018-11-23T15:14:09.714Z,696.95
2018-11-23T15:29:41.774Z,697.02
2018-11-23T15:32:11.348Z,705.27
2018-11-23T15:34:40.810Z,693.35
2018-11-23T15:37:10.871Z,684.98
2018-11-23T15:39:40.332Z,683.07
2018-11-23T15:42:09.841Z,670.80
2018-11-23T15:44:39.413Z,605.75
2018-11-23T15:47:09.003Z,615.25
2018-11-23T15:49:38.542Z,615.83
2018-11-23T15:52:09.032Z,626.92
2018-11-23T15:54:38.611Z,642.25
2018-11-23T15:57:08.166Z,626.83
2018-11-23T15:59:38.697Z,629.60
2018-11-23T16:02:08.277Z,631.02
2018-11-23T16:04:39.534Z,629.02
2018-11-23T16:07:08.335Z,631.20
2018-11-23T16:09:37.866Z,621.42
2018-11-23T16:12:08.318Z,611.65
2018-11-23T16:14:37.891Z,608.30
2018-11-23T16:17:07.339Z,612.27
2018-11-23T16:19:36.821Z,620.75
2018-11-23T16:22:06.436Z,630.13
2018-11-23T16:24:37.954Z,620.27
2018-11-23T16:27:08.167Z,633.75
2018-11-23T16:29:38.758Z,616.17
2018-11-23T16:32:08.255Z,628.15
2018-11-23T16:34:37.717Z,644.75
2018-11-23T16:37:08.293Z,633.30
2018-11-23T16:39:37.893Z,635.78
2018-11-23T16:42:07.287Z,627.90
2018-11-23T16:44:37.006Z,631.95
2018-11-23T16:47:06.604Z,629.80
2018-11-23T16:49:37.124Z,637.25
2018-11-23T16:52:06.695Z,636.28
2018-11-23T16:54:36.484Z,629.90
2018-11-23T16:57:06.063Z,631.83
2018-11-23T16:59:37.220Z,627.02
2018-11-23T17:02:06.804Z,622.05
2018-11-23T17:04:38.133Z,634.80
2018-11-23T17:07:12.742Z,625.48
2018-11-23T17:09:37.405Z,624.98
2018-11-23T17:12:08.911Z,638.25
2018-11-23T17:14:38.386Z,636.12
2018-11-23T17:17:07.952Z,620.73
2018-11-23T17:19:37.641Z,628.75
2018-11-23T17:22:07.633Z,629.08
2018-11-23T17:24:38.255Z,628.30
2018-11-23T17:27:08.790Z,623.97
2018-11-23T17:29:38.404Z,622.27
2018-11-23T17:32:07.936Z,633.48
2018-11-23T17:34:37.485Z,622.05
2018-11-23T17:37:07.049Z,621.40
2018-11-23T17:39:36.821Z,623.47
2018-11-23T17:42:06.320Z,628.93
2018-11-23T17:44:37.227Z,634.85
2018-11-23T17:47:07.008Z,625.20
2018-11-23T17:49:37.649Z,621.98
2018-11-23T17:52:07.315Z,623.17
2018-11-23T17:54:37.197Z,613.98
2018-11-23T17:57:06.724Z,618.27
2018-11-23T17:59:48.562Z,617.87
2018-11-23T18:02:22.419Z,620.77
2018-11-23T18:04:51.951Z,620.15
2018-11-23T18:07:21.389Z,621.92
2018-11-23T18:09:50.882Z,619.55
2018-11-23T18:12:20.360Z,619.73
2018-11-23T18:14:49.933Z,623.30
2018-11-23T18:17:19.606Z,628.00
2018-11-23T18:19:49.140Z,617.22
2018-11-23T18:22:19.642Z,616.45
2018-11-23T18:24:49.191Z,618.33
2018-11-23T18:27:18.793Z,616.10
2018-11-23T18:29:48.227Z,621.95
2018-11-23T18:32:17.829Z,635.63
2018-11-23T18:34:47.259Z,622.48
2018-11-23T18:37:16.782Z,624.62
2018-11-23T18:39:48.225Z,620.17
2018-11-23T18:42:17.715Z,618.23
2018-11-23T18:44:47.175Z,614.08
2018-11-23T18:47:16.759Z,626.22
2018-11-23T18:49:46.347Z,608.97
2018-11-23T18:52:15.880Z,618.25
2018-11-23T18:54:46.400Z,613.92
2018-11-23T18:57:15.903Z,612.92
2018-11-23T18:59:45.353Z,619.80
2018-11-23T19:02:14.875Z,620.42
2018-11-23T19:04:44.568Z,609.63
2018-11-23T19:07:14.039Z,608.35
2018-11-23T19:09:44.316Z,627.85
2018-11-23T19:12:13.835Z,614.58
2018-11-23T19:14:43.408Z,610.40
2018-11-23T19:17:12.951Z,611.92
2018-11-23T19:19:42.504Z,617.05
2018-11-23T19:22:11.981Z,610.25
2018-11-23T19:24:42.433Z,608.67
2018-11-23T19:27:11.887Z,616.98
2018-11-23T19:29:41.378Z,613.00
2018-11-23T19:32:11.940Z,611.47
2018-11-23T19:34:41.385Z,623.05
2018-11-23T19:37:10.982Z,606.73
2018-11-23T19:39:40.529Z,617.85
2018-11-23T19:42:10.835Z,604.33
2018-11-23T19:44:40.363Z,604.57
2018-11-23T19:47:10.021Z,610.78
2018-11-23T19:49:39.556Z,611.83
2018-11-23T19:52:09.085Z,607.97
2018-11-23T19:54:39.693Z,611.75
2018-11-23T19:57:09.132Z,610.48
2018-11-23T19:59:38.838Z,600.53
2018-11-23T20:02:08.469Z,598.50
2018-11-23T20:04:37.975Z,603.45
2018-11-23T20:07:07.583Z,606.27
2018-11-23T20:09:39.951Z,598.40
2018-11-23T20:12:07.814Z,609.70
2018-11-23T20:14:38.512Z,602.92
2018-11-23T20:17:08.039Z,597.77
2018-11-23T20:19:37.567Z,601.40
2018-11-23T20:22:07.836Z,601.08
2018-11-23T20:24:38.338Z,603.17
2018-11-23T20:27:08.897Z,608.93
2018-11-23T20:29:38.430Z,610.63
2018-11-23T20:32:07.925Z,607.80
2018-11-23T20:34:37.572Z,606.45
2018-11-23T20:50:11.141Z,592.08
2018-11-23T20:52:40.696Z,621.77
2018-11-23T20:55:17.095Z,608.48
2018-11-23T20:57:46.712Z,602.95
2018-11-23T21:00:19.081Z,590.50
2018-11-23T21:15:52.832Z,604.42
2018-11-23T21:18:22.390Z,596.15
2018-11-23T21:20:51.962Z,583.23
2018-11-23T21:23:22.444Z,576.15
2018-11-23T21:25:51.964Z,582.70
2018-11-23T21:28:22.431Z,582.42
2018-11-23T21:30:51.876Z,582.80
2018-11-23T21:33:21.368Z,585.67
2018-11-23T21:35:50.858Z,582.35
2018-11-23T21:38:20.423Z,584.50
2018-11-23T21:40:49.971Z,584.03
2018-11-23T21:43:19.522Z,593.07
2018-11-23T21:45:50.007Z,590.08
2018-11-23T21:48:19.508Z,593.77
2018-11-23T21:50:49.033Z,583.05
2018-11-23T21:53:18.666Z,593.37
2018-11-23T21:55:48.237Z,587.10
2018-11-23T21:58:17.734Z,586.62
2018-11-23T22:00:47.332Z,589.55
2018-11-23T22:03:16.882Z,595.80
2018-11-23T22:05:48.353Z,600.45
2018-11-23T22:08:18.787Z,597.33
2018-11-23T22:10:48.234Z,590.50
2018-11-23T22:13:17.701Z,592.12
2018-11-23T22:15:47.283Z,592.63
2018-11-23T22:18:16.802Z,590.67
2018-11-23T22:20:46.343Z,595.85
2018-11-23T22:23:16.783Z,606.13
2018-11-23T22:25:46.330Z,597.98
2018-11-23T22:28:15.928Z,595.02
2018-11-23T22:30:45.475Z,587.27
2018-11-23T22:33:16.022Z,595.27
2018-11-23T22:35:50.884Z,600.67
2018-11-23T22:38:20.431Z,609.20
2018-11-23T22:40:49.974Z,600.35
2018-11-23T22:43:20.750Z,600.55
2018-11-23T22:45:50.443Z,606.33
2018-11-23T22:48:20.054Z,602.42
2018-11-23T22:50:49.697Z,596.90
2018-11-23T22:53:19.419Z,595.23
2018-11-23T22:55:50.748Z,592.75
2018-11-23T22:58:20.310Z,593.87
2018-11-23T23:00:50.134Z,586.38
2018-11-23T23:03:20.670Z,595.70
2018-11-23T23:05:51.285Z,588.98
2018-11-23T23:08:21.062Z,587.17
2018-11-23T23:10:51.514Z,589.17
2018-11-23T23:13:21.063Z,582.62
2018-11-23T23:15:51.661Z,585.23
2018-11-23T23:18:21.132Z,567.27
2018-11-23T23:20:50.698Z,569.55
2018-11-23T23:23:20.141Z,564.32
2018-11-23T23:25:50.267Z,574.17
2018-11-23T23:28:19.775Z,569.65
2018-11-23T23:30:49.341Z,573.03
2018-11-23T23:33:18.830Z,583.00
2018-11-23T23:35:48.353Z,561.77
2018-11-23T23:38:19.963Z,568.25
2018-11-23T23:40:49.480Z,576.33
2018-11-23T23:43:18.962Z,566.90
2018-11-23T23:45:48.521Z,570.80
2018-11-23T23:48:19.077Z,573.62
2018-11-23T23:50:48.699Z,570.20
2018-11-23T23:53:20.383Z,572.98
2018-11-23T23:55:50.028Z,580.00
2018-11-23T23:58:19.690Z,575.65
